Time;durP1;ratioP1;P1;durP2;ratioP2;P2;SDS_P1;SDS_P2;PMS_P1;PMS_P2;Temp;Humidity;BMP_temperature;BMP_pressure;BME280_temperature;BME280_humidity;BME280_pressure;Samples;Min_cycle;Max_cycle;Signal;HPM_P1;HPM_P2
2023/05/24 00:00:05;;;;;;;;;;;;;;;25.54;37.09;100455.97;5068871;28;1130;-29
2023/05/24 00:02:30;;;;;;;;;;;;;;;25.54;36.86;100455.97;5075501;28;818;-28
2023/05/24 00:04:59;;;;;;;;;;;;;;;25.47;37.16;100455.00;5062935;28;1038;-29
2023/05/24 00:07:25;;;;;;;;;;;;;;;25.36;37.41;100448.19;5069315;28;1047;-31
2023/05/24 00:09:50;;;;;;;;;;;;;;;25.35;37.13;100452.72;5068761;28;1115;-29
2023/05/24 00:12:16;;;;;;;;;;;;;;;25.44;37.03;100451.63;5055826;28;1902;-30
2023/05/24 00:14:41;;;;;;;;;;;;;;;25.32;37.33;100445.00;5068517;28;1160;-30
2023/05/24 00:17:07;;;;;;;;;;;;;;;25.46;37.05;100445.25;5069425;28;1214;-29
2023/05/24 00:19:33;;;;;;;;;;;;;;;25.44;37.14;100446.25;5068588;28;1099;-29
2023/05/24 00:21:58;;;;;;;;;;;;;;;25.34;37.35;100442.13;5062873;28;1177;-29
2023/05/24 00:24:23;;;;;;;;;;;;;;;25.41;37.02;100443.91;5062451;28;1115;-31
2023/05/24 00:26:49;;;;;;;;;;;;;;;25.41;37.17;100448.47;5064667;28;874;-28
2023/05/24 00:29:14;;;;;;;;;;;;;;;25.38;36.85;100452.34;5062271;28;1158;-29
2023/05/24 00:31:40;;;;;;;;;;;;;;;25.37;37.29;100453.38;5055819;28;1906;-29
2023/05/24 00:34:05;;;;;;;;;;;;;;;25.47;37.06;100452.31;5069617;28;1206;-31
2023/05/24 00:36:31;;;;;;;;;;;;;;;25.37;37.16;100457.94;5076030;28;1135;-27
2023/05/24 00:38:57;;;;;;;;;;;;;;;25.38;37.22;100456.91;5074959;28;1217;-30
2023/05/24 00:41:23;;;;;;;;;;;;;;;25.55;36.91;100452.25;5068672;28;1091;-27
2023/05/24 00:43:48;;;;;;;;;;;;;;;25.73;36.70;100454.66;5050801;28;1174;-27
2023/05/24 00:46:17;;;;;;;;;;;;;;;25.56;36.92;100453.91;5062757;28;1115;-30
2023/05/24 00:48:43;;;;;;;;;;;;;;;25.51;36.69;100454.47;5075495;28;1138;-28
2023/05/24 00:51:09;;;;;;;;;;;;;;;25.48;36.94;100456.66;5064625;28;1914;-29
2023/05/24 00:53:35;;;;;;;;;;;;;;;25.62;36.64;100461.28;5037434;28;1104;-28
2023/05/24 00:56:00;;;;;;;;;;;;;;;25.47;36.94;100460.38;5046145;28;1071;-29
2023/05/24 00:58:29;;;;;;;;;;;;;;;25.34;37.21;100458.28;5044271;28;1028;-29
2023/05/24 01:00:58;;;;;;;;;;;;;;;25.47;37.14;100463.06;5066478;28;1123;-31
2023/05/24 01:03:28;;;;;;;;;;;;;;;25.46;37.14;100469.50;5043921;28;1092;-27
2023/05/24 01:06:00;;;;;;;;;;;;;;;25.47;37.18;100463.06;5075437;28;1058;-29
2023/05/24 01:08:41;;;;;;;;;;;;;;;25.47;36.96;100457.69;5043838;28;1180;-28
2023/05/24 01:11:07;;;;;;;;;;;;;;;25.46;36.89;100456.84;5075204;28;1902;-26
2023/05/24 01:13:35;;;;;;;;;;;;;;;25.45;37.03;100452.50;5061535;28;1153;-28
2023/05/24 01:16:00;;;;;;;;;;;;;;;25.55;36.77;100454.94;5075016;28;897;-27
2023/05/24 01:18:29;;;;;;;;;;;;;;;25.39;37.16;100445.13;5061513;28;1110;-32
2023/05/24 01:21:08;;;;;;;;;;;;;;;25.46;37.21;100456.84;5052316;28;1012;-27
2023/05/24 01:23:40;;;;;;;;;;;;;;;25.47;37.07;100453.16;5047017;28;1036;-32
2023/05/24 01:26:10;;;;;;;;;;;;;;;25.67;36.37;100452.69;5047498;28;1229;-33
2023/05/24 01:28:35;;;;;;;;;;;;;;;25.51;36.73;100457.16;5060590;28;1588;-29
2023/05/24 01:31:01;;;;;;;;;;;;;;;25.66;36.56;100440.22;5047127;28;1974;-29
2023/05/24 01:33:26;;;;;;;;;;;;;;;25.57;36.78;100450.22;5060450;28;1035;-30
2023/05/24 01:35:52;;;;;;;;;;;;;;;25.63;36.28;100454.91;5078206;28;1104;-29
2023/05/24 01:38:17;;;;;;;;;;;;;;;25.47;37.11;100455.00;5065532;28;1105;-28
2023/05/24 01:40:43;;;;;;;;;;;;;;;25.34;37.15;100460.97;5071893;28;999;-30
2023/05/24 01:43:08;;;;;;;;;;;;;;;25.58;36.60;100459.13;5047660;28;1100;-29
2023/05/24 01:45:36;;;;;;;;;;;;;;;25.40;36.87;100454.88;5059653;28;1280;-28
2023/05/24 01:48:17;;;;;;;;;;;;;;;25.47;36.77;100453.16;5031163;28;1072;-28
2023/05/24 01:50:56;;;;;;;;;;;;;;;25.37;36.76;100458.78;5044911;28;1914;-28
2023/05/24 01:53:25;;;;;;;;;;;;;;;25.44;36.81;100464.28;5057543;28;1110;-28
2023/05/24 01:55:52;;;;;;;;;;;;;;;25.40;36.70;100463.81;5076647;28;1079;-31
2023/05/24 01:58:17;;;;;;;;;;;;;;;25.64;36.55;100464.66;5077904;28;1076;-27
2023/05/24 02:00:43;;;;;;;;;;;;;;;25.61;36.27;100464.16;5043121;28;1091;-29
2023/05/24 02:03:08;;;;;;;;;;;;;;;25.47;36.76;100461.22;5053805;28;1123;-29
2023/05/24 02:05:34;;;;;;;;;;;;;;;25.40;37.03;100463.81;5077979;28;1074;-28
2023/05/24 02:08:04;;;;;;;;;;;;;;;25.40;36.76;100461.09;5059717;28;1101;-31
2023/05/24 02:10:30;;;;;;;;;;;;;;;25.44;36.48;100465.09;5077870;28;1906;-28
2023/05/24 02:12:55;;;;;;;;;;;;;;;25.41;36.88;100461.91;5077746;28;1182;-28
2023/05/24 02:15:21;;;;;;;;;;;;;;;25.84;35.93;100460.66;5072078;28;1202;-26
2023/05/24 02:17:46;;;;;;;;;;;;;;;25.53;36.74;100457.81;5052154;28;1151;-30
2023/05/24 02:20:12;;;;;;;;;;;;;;;25.47;36.87;100461.22;5054096;28;1102;-30
2023/05/24 02:22:37;;;;;;;;;;;;;;;25.38;36.94;100467.66;5051200;28;1032;-30
2023/05/24 02:25:03;;;;;;;;;;;;;;;25.35;36.98;100463.50;5058824;28;1071;-28
2023/05/24 02:27:29;;;;;;;;;;;;;;;25.33;37.02;100465.50;5063736;28;1131;-28
2023/05/24 02:29:54;;;;;;;;;;;;;;;25.37;36.81;100463.31;5077128;28;1055;-30
2023/05/24 02:32:20;;;;;;;;;;;;;;;25.50;36.85;100468.09;5065949;28;1981;-28
2023/05/24 02:34:45;;;;;;;;;;;;;;;25.34;37.07;100471.75;5057850;28;1688;-29
2023/05/24 02:37:14;;;;;;;;;;;;;;;25.28;37.12;100470.59;5065768;28;1166;-30
2023/05/24 02:39:40;;;;;;;;;;;;;;;25.41;37.02;100470.84;5075652;28;1031;-29
2023/05/24 02:42:07;;;;;;;;;;;;;;;25.53;36.63;100476.66;5077314;28;1035;-32
2023/05/24 02:44:33;;;;;;;;;;;;;;;25.40;37.21;100479.09;5057653;28;1188;-30
2023/05/24 02:46:58;;;;;;;;;;;;;;;25.44;36.64;100483.94;5051604;28;1199;-30
2023/05/24 02:49:24;;;;;;;;;;;;;;;25.34;36.94;100480.66;5058422;28;1155;-29
2023/05/24 02:51:50;;;;;;;;;;;;;;;25.61;36.20;100486.53;5046041;28;1961;-28
2023/05/24 02:54:16;;;;;;;;;;;;;;;25.47;36.74;100490.00;5057052;28;1215;-28
2023/05/24 02:56:42;;;;;;;;;;;;;;;25.66;36.39;100480.63;5043764;28;1316;-27
2023/05/24 02:59:08;;;;;;;;;;;;;;;25.73;36.51;100489.69;5047372;28;1080;-30
2023/05/24 03:01:34;;;;;;;;;;;;;;;25.05;36.69;100488.38;5070343;28;1099;-31
2023/05/24 03:04:01;;;;;;;;;;;;;;;24.19;38.35;100484.38;5050004;28;1290;-29
2023/05/24 03:06:26;;;;;;;;;;;;;;;23.91;38.80;100481.16;5059794;28;1179;-28
2023/05/24 03:08:52;;;;;;;;;;;;;;;23.70;39.51;100480.69;5056350;28;1214;-27
2023/05/24 03:11:20;;;;;;;;;;;;;;;23.53;39.88;100478.97;5038998;28;1902;-30
2023/05/24 03:13:47;;;;;;;;;;;;;;;23.50;39.85;100474.78;5038376;28;2088;-28
2023/05/24 03:16:15;;;;;;;;;;;;;;;23.30;40.29;100480.41;5048716;28;1086;-32
2023/05/24 03:18:41;;;;;;;;;;;;;;;23.56;39.98;100482.16;5057900;28;1402;-26
2023/05/24 03:21:07;;;;;;;;;;;;;;;23.50;39.73;100479.28;5058411;28;1094;-29
2023/05/24 03:23:33;;;;;;;;;;;;;;;23.44;40.11;100483.50;5058712;28;1249;-29
2023/05/24 03:25:58;;;;;;;;;;;;;;;23.33;40.42;100482.75;5049805;28;1138;-29
2023/05/24 03:28:24;;;;;;;;;;;;;;;23.24;40.70;100481.88;5042480;28;1298;-28
2023/05/24 03:30:49;;;;;;;;;;;;;;;23.48;40.35;100490.19;5038520;28;1918;-31
2023/05/24 03:33:16;;;;;;;;;;;;;;;23.68;39.77;100485.38;5051918;28;1059;-28
2023/05/24 03:35:42;;;;;;;;;;;;;;;23.70;39.89;100493.25;5047298;28;1137;-30
2023/05/24 03:38:08;;;;;;;;;;;;;;;23.62;40.21;100499.47;5045142;28;1379;-28
2023/05/24 03:40:37;;;;;;;;;;;;;;;23.60;40.25;100496.09;5055448;28;952;-28
2023/05/24 03:43:11;;;;;;;;;;;;;;;23.60;40.28;100499.63;5045187;28;1190;-32
2023/05/24 03:45:44;;;;;;;;;;;;;;;23.44;40.93;100502.28;5046388;28;1162;-30
2023/05/24 03:48:10;;;;;;;;;;;;;;;23.66;40.48;100505.31;5069735;28;1011;-28
2023/05/24 03:50:35;;;;;;;;;;;;;;;23.76;40.81;100505.16;5055820;28;1901;-32
2023/05/24 03:53:01;;;;;;;;;;;;;;;24.22;39.77;100502.03;5056279;28;1239;-30
2023/05/24 03:55:26;;;;;;;;;;;;;;;24.12;39.57;100501.34;5064344;28;995;-32
2023/05/24 03:57:52;;;;;;;;;;;;;;;23.94;39.79;100500.47;5069121;28;1131;-35
2023/05/24 04:00:17;;;;;;;;;;;;;;;23.78;39.91;100498.63;5046593;28;1116;-29
2023/05/24 04:02:45;;;;;;;;;;;;;;;24.08;39.44;100493.59;5055034;28;1019;-33
2023/05/24 04:05:12;;;;;;;;;;;;;;;24.06;39.48;100502.81;5038202;28;918;-28
2023/05/24 04:07:38;;;;;;;;;;;;;;;24.53;38.61;100497.75;5046571;28;1369;-28
2023/05/24 04:10:04;;;;;;;;;;;;;;;24.92;38.05;100504.25;5043074;28;1304;-32
2023/05/24 04:12:30;;;;;;;;;;;;;;;25.01;37.96;100502.34;5073745;28;1906;-31
2023/05/24 04:14:56;;;;;;;;;;;;;;;25.01;37.79;100500.50;5050385;28;1233;-28
2023/05/24 04:17:23;;;;;;;;;;;;;;;25.07;37.76;100496.28;5075164;28;876;-31
2023/05/24 04:19:50;;;;;;;;;;;;;;;25.01;38.15;100505.88;5045453;28;1462;-29
2023/05/24 04:22:17;;;;;;;;;;;;;;;25.04;38.05;100507.41;5057701;28;1279;-34
2023/05/24 04:24:43;;;;;;;;;;;;;;;25.15;37.40;100512.41;5056742;28;1214;-32
2023/05/24 04:27:09;;;;;;;;;;;;;;;25.31;37.60;100510.63;5053829;28;1464;-30
2023/05/24 04:29:35;;;;;;;;;;;;;;;25.22;37.71;100509.84;5075235;28;885;-32
2023/05/24 04:32:00;;;;;;;;;;;;;;;24.94;38.50;100515.69;5045711;28;1910;-30
2023/05/24 04:34:28;;;;;;;;;;;;;;;25.03;38.48;100514.63;5057383;28;1227;-32
2023/05/24 04:36:55;;;;;;;;;;;;;;;24.62;39.15;100517.41;5053234;28;1273;-33
2023/05/24 04:39:20;;;;;;;;;;;;;;;24.99;38.42;100517.84;5044694;28;1301;-31
2023/05/24 04:41:49;;;;;;;;;;;;;;;24.74;39.30;100513.34;5069583;28;1143;-30
2023/05/24 04:44:15;;;;;;;;;;;;;;;24.60;39.71;100527.50;5075230;28;1301;-32
2023/05/24 04:46:41;;;;;;;;;;;;;;;24.93;38.71;100522.06;5068061;28;974;-32
2023/05/24 04:49:07;;;;;;;;;;;;;;;25.26;37.98;100521.91;5070779;28;1044;-32
2023/05/24 04:51:33;;;;;;;;;;;;;;;25.12;38.26;100511.91;5070573;28;1901;-31
2023/05/24 04:54:00;;;;;;;;;;;;;;;25.33;37.80;100516.66;5073492;28;1004;-31
2023/05/24 04:56:25;;;;;;;;;;;;;;;25.51;37.37;100518.25;5064992;28;978;-28
2023/05/24 04:58:51;;;;;;;;;;;;;;;25.49;37.10;100523.00;5076169;28;1130;-31
2023/05/24 05:01:17;;;;;;;;;;;;;;;25.42;37.33;100523.69;5064365;28;1011;-35
2023/05/24 05:03:44;;;;;;;;;;;;;;;25.39;36.91;100521.34;5069655;28;1150;-29
2023/05/24 05:06:10;;;;;;;;;;;;;;;25.37;37.28;100519.84;5062761;28;882;-29
2023/05/24 05:08:35;;;;;;;;;;;;;;;25.32;37.18;100515.00;5060840;28;1123;-29
2023/05/24 05:11:01;;;;;;;;;;;;;;;25.50;37.05;100520.13;5069877;28;1914;-32
2023/05/24 05:13:27;;;;;;;;;;;;;;;25.44;37.51;100513.56;5048880;28;1063;-29
2023/05/24 05:15:52;;;;;;;;;;;;;;;25.53;37.09;100511.69;5068426;28;1136;-29
2023/05/24 05:18:18;;;;;;;;;;;;;;;25.46;37.02;100516.09;5075392;28;892;-28
2023/05/24 05:20:43;;;;;;;;;;;;;;;25.54;36.92;100516.03;5058993;28;1039;-29
2023/05/24 05:23:09;;;;;;;;;;;;;;;25.60;36.95;100527.97;5072883;28;1151;-28
2023/05/24 05:25:34;;;;;;;;;;;;;;;25.64;36.51;100520.41;5071007;28;1098;-32
2023/05/24 05:28:00;;;;;;;;;;;;;;;25.58;36.57;100515.69;5052163;28;1954;-31
2023/05/24 05:30:26;;;;;;;;;;;;;;;25.77;36.28;100519.81;5074677;28;1905;-32
2023/05/24 05:32:51;;;;;;;;;;;;;;;25.54;36.86;100524.13;5073127;28;1234;-30
2023/05/24 05:35:17;;;;;;;;;;;;;;;25.60;36.77;100521.72;5070256;28;1056;-30
2023/05/24 05:37:42;;;;;;;;;;;;;;;25.64;36.46;100532.00;5075064;28;1202;-30
2023/05/24 05:40:08;;;;;;;;;;;;;;;25.86;36.09;100528.69;5066145;28;1202;-33
2023/05/24 05:42:33;;;;;;;;;;;;;;;25.77;36.31;100533.28;5084962;28;1325;-34
2023/05/24 05:44:59;;;;;;;;;;;;;;;25.79;36.18;100540.16;5070763;28;1233;-29
2023/05/24 05:47:25;;;;;;;;;;;;;;;25.90;36.22;100540.75;5064741;28;1087;-30
2023/05/24 05:49:50;;;;;;;;;;;;;;;25.60;36.19;100538.75;5075414;28;1314;-28
2023/05/24 05:52:15;;;;;;;;;;;;;;;25.78;36.48;100541.19;5048951;28;1906;-30
2023/05/24 05:54:41;;;;;;;;;;;;;;;25.82;36.00;100546.22;5066997;28;1138;-29
2023/05/24 05:57:09;;;;;;;;;;;;;;;25.70;36.37;100538.53;5068161;28;1216;-32
2023/05/24 05:59:34;;;;;;;;;;;;;;;25.67;36.23;100542.41;5064001;28;1178;-32
2023/05/24 06:02:01;;;;;;;;;;;;;;;26.22;35.38;100549.63;5071485;28;1158;-30
2023/05/24 06:04:26;;;;;;;;;;;;;;;26.03;36.00;100546.38;5068063;28;1066;-29
2023/05/24 06:06:52;;;;;;;;;;;;;;;26.06;35.98;100547.06;5067267;28;1401;-28
2023/05/24 06:09:17;;;;;;;;;;;;;;;25.82;36.83;100543.50;5070774;28;1166;-31
2023/05/24 06:11:43;;;;;;;;;;;;;;;26.20;35.93;100548.94;5069226;28;2012;-27
2023/05/24 06:14:16;;;;;;;;;;;;;;;26.25;35.66;100534.91;5061946;28;1096;-29
2023/05/24 06:16:44;;;;;;;;;;;;;;;25.97;35.92;100547.13;5054208;28;1036;-30
2023/05/24 06:19:13;;;;;;;;;;;;;;;25.84;37.45;100541.47;5072375;28;1161;-31
2023/05/24 06:21:45;;;;;;;;;;;;;;;25.68;38.09;100552.19;5076810;28;1045;-29
2023/05/24 06:24:12;;;;;;;;;;;;;;;25.59;38.34;100538.91;5068311;28;1113;-31
2023/05/24 06:26:37;;;;;;;;;;;;;;;25.61;38.58;100537.72;5059982;28;1145;-33
2023/05/24 06:29:03;;;;;;;;;;;;;;;25.65;38.46;100546.31;5077358;28;1102;-32
2023/05/24 06:31:28;;;;;;;;;;;;;;;25.59;38.96;100542.44;5064038;28;1977;-31
2023/05/24 06:33:53;;;;;;;;;;;;;;;25.56;39.20;100534.72;5068342;28;1078;-29
2023/05/24 06:36:19;;;;;;;;;;;;;;;25.79;38.63;100539.34;5039831;28;1138;-29
2023/05/24 06:38:44;;;;;;;;;;;;;;;25.83;38.54;100537.94;5069334;28;915;-29
2023/05/24 06:41:10;;;;;;;;;;;;;;;26.04;37.98;100537.28;5065741;28;1034;-27
2023/05/24 06:43:35;;;;;;;;;;;;;;;25.97;37.59;100533.63;5068096;28;1178;-29
2023/05/24 06:46:01;;;;;;;;;;;;;;;26.04;37.53;100533.75;5075195;28;1102;-30
2023/05/24 06:48:26;;;;;;;;;;;;;;;26.07;37.13;100532.53;5063929;28;1135;-27
2023/05/24 06:50:52;;;;;;;;;;;;;;;26.27;36.93;100528.34;5057060;28;1910;-31
2023/05/24 06:53:17;;;;;;;;;;;;;;;26.25;36.67;100529.53;5064399;28;1167;-29
2023/05/24 06:55:43;;;;;;;;;;;;;;;26.24;37.10;100539.47;5075243;28;1105;-29
2023/05/24 06:58:13;;;;;;;;;;;;;;;26.12;37.03;100546.31;5060958;28;1195;-31
2023/05/24 07:00:39;;;;;;;;;;;;;;;26.22;36.49;100544.22;5070155;28;1286;-32
2023/05/24 07:03:05;;;;;;;;;;;;;;;26.20;36.62;100542.72;5056623;28;1124;-31
2023/05/24 07:05:31;;;;;;;;;;;;;;;26.09;36.88;100549.38;5072487;28;1222;-33
2023/05/24 07:07:56;;;;;;;;;;;;;;;26.21;36.50;100550.63;5076420;28;1059;-31
2023/05/24 07:10:22;;;;;;;;;;;;;;;26.12;36.77;100546.31;5075718;28;1193;-29
2023/05/24 07:12:47;;;;;;;;;;;;;;;26.15;36.49;100548.66;5075005;28;1979;-32
2023/05/24 07:15:13;;;;;;;;;;;;;;;26.18;34.73;100540.19;5050656;28;1428;-32
2023/05/24 07:17:38;;;;;;;;;;;;;;;26.14;33.69;100550.50;5063490;28;1310;-29
2023/05/24 07:20:13;;;;;;;;;;;;;;;26.04;33.14;100548.06;5067832;28;1091;-31
2023/05/24 07:22:39;;;;;;;;;;;;;;;26.21;34.40;100549.78;5055023;28;1043;-31
2023/05/24 07:25:05;;;;;;;;;;;;;;;26.25;34.65;100553.78;5060613;28;1083;-29
2023/05/24 07:27:30;;;;;;;;;;;;;;;26.29;34.74;100545.16;5073895;28;1222;-28
2023/05/24 07:29:57;;;;;;;;;;;;;;;26.35;35.15;100548.16;5058249;28;1086;-33
2023/05/24 07:32:23;;;;;;;;;;;;;;;26.34;34.81;100551.91;5055564;28;1906;-28
2023/05/24 07:34:49;;;;;;;;;;;;;;;26.30;34.97;100556.78;5075710;28;1151;-28
2023/05/24 07:37:16;;;;;;;;;;;;;;;26.35;35.00;100550.88;5072724;28;1035;-31
2023/05/24 07:39:41;;;;;;;;;;;;;;;26.39;34.70;100553.00;5066064;28;1079;-31
2023/05/24 07:42:07;;;;;;;;;;;;;;;26.35;35.47;100553.56;5072063;28;1020;-28
2023/05/24 07:44:32;;;;;;;;;;;;;;;26.39;35.05;100552.19;5056136;28;1082;-31
2023/05/24 07:46:58;;;;;;;;;;;;;;;26.32;34.78;100554.75;5069423;28;1123;-30
2023/05/24 07:49:23;;;;;;;;;;;;;;;26.37;33.54;100548.84;5066086;28;1054;-29
2023/05/24 07:51:49;;;;;;;;;;;;;;;26.32;33.66;100552.06;5075704;28;1906;-31
2023/05/24 07:54:14;;;;;;;;;;;;;;;26.33;33.24;100550.19;5075490;28;1059;-28
2023/05/24 07:56:40;;;;;;;;;;;;;;;26.41;33.62;100547.44;5072801;28;1074;-29
2023/05/24 07:59:06;;;;;;;;;;;;;;;26.27;34.48;100559.84;5068826;28;1135;-30
2023/05/24 08:01:33;;;;;;;;;;;;;;;26.16;34.37;100555.72;5055545;28;1277;-27
2023/05/24 08:03:59;;;;;;;;;;;;;;;26.09;34.14;100554.78;5042852;28;1198;-29
2023/05/24 08:06:25;;;;;;;;;;;;;;;26.27;34.01;100551.75;5070392;28;1309;-30
2023/05/24 08:08:50;;;;;;;;;;;;;;;26.37;34.26;100555.06;5076015;28;1254;-27
2023/05/24 08:11:16;;;;;;;;;;;;;;;26.44;34.58;100557.03;5070863;28;1971;-26
2023/05/24 08:13:42;;;;;;;;;;;;;;;26.52;34.08;100556.94;5066948;28;1226;-28
2023/05/24 08:16:08;;;;;;;;;;;;;;;26.47;34.78;100557.50;5061699;28;1504;-29
2023/05/24 08:18:33;;;;;;;;;;;;;;;26.45;34.39;100562.25;5073193;28;1093;-31
2023/05/24 08:20:59;;;;;;;;;;;;;;;26.45;34.47;100562.25;5064679;28;1007;-27
2023/05/24 08:23:25;;;;;;;;;;;;;;;26.40;34.74;100560.09;5067680;28;996;-30
2023/05/24 08:25:52;;;;;;;;;;;;;;;26.39;35.24;100558.41;5062987;28;1146;-28
2023/05/24 08:28:17;;;;;;;;;;;;;;;26.28;35.71;100561.50;5080061;28;1166;-29
2023/05/24 08:30:43;;;;;;;;;;;;;;;26.16;35.93;100559.25;5061000;28;1906;-30
2023/05/24 08:33:08;;;;;;;;;;;;;;;26.44;35.39;100559.72;5059481;28;1047;-32
2023/05/24 08:35:34;;;;;;;;;;;;;;;26.60;34.80;100564.13;5064658;28;1146;-27
2023/05/24 08:38:00;;;;;;;;;;;;;;;26.68;34.87;100558.63;5079684;28;1054;-27
2023/05/24 08:40:26;;;;;;;;;;;;;;;26.75;34.92;100558.72;5073844;28;1106;-29
2023/05/24 08:42:51;;;;;;;;;;;;;;;26.76;34.73;100566.66;5071310;28;1194;-29
2023/05/24 08:45:17;;;;;;;;;;;;;;;26.80;34.43;100558.19;5073998;28;1144;-29
2023/05/24 08:47:42;;;;;;;;;;;;;;;26.69;35.14;100562.19;5051043;28;1227;-29
2023/05/24 08:50:08;;;;;;;;;;;;;;;26.66;35.11;100552.56;5059937;28;945;-27
2023/05/24 08:52:34;;;;;;;;;;;;;;;26.51;35.18;100558.81;5071225;28;1977;-29
2023/05/24 08:55:00;;;;;;;;;;;;;;;26.61;35.15;100563.94;5065010;28;1102;-27
2023/05/24 08:57:26;;;;;;;;;;;;;;;26.62;34.80;100565.63;5065788;28;995;-29
2023/05/24 08:59:54;;;;;;;;;;;;;;;26.63;35.09;100570.00;5078659;28;1170;-27
2023/05/24 09:02:20;;;;;;;;;;;;;;;26.57;35.04;100573.44;5072738;28;1070;-28
2023/05/24 09:04:45;;;;;;;;;;;;;;;26.71;34.93;100579.84;5060436;28;1107;-29
2023/05/24 09:07:11;;;;;;;;;;;;;;;26.75;34.48;100575.78;5074486;28;1035;-30
2023/05/24 09:09:43;;;;;;;;;;;;;;;26.73;34.54;100566.16;5058022;28;1145;-28
2023/05/24 09:12:08;;;;;;;;;;;;;;;26.77;34.44;100581.84;5077629;28;2046;-29
2023/05/24 09:14:34;;;;;;;;;;;;;;;26.80;34.76;100586.00;5055186;28;1096;-27
2023/05/24 09:17:00;;;;;;;;;;;;;;;26.79;34.65;100584.34;5071820;28;1031;-27
2023/05/24 09:19:26;;;;;;;;;;;;;;;26.85;34.76;100580.06;5072727;28;1099;-30
2023/05/24 09:21:52;;;;;;;;;;;;;;;26.71;35.06;100587.94;5064080;28;1032;-29
2023/05/24 09:24:18;;;;;;;;;;;;;;;26.73;35.47;100585.06;5046296;28;1151;-29
2023/05/24 09:26:43;;;;;;;;;;;;;;;26.68;35.25;100588.31;5044847;28;1115;-31
2023/05/24 09:29:09;;;;;;;;;;;;;;;26.69;35.25;100581.91;5042072;28;1132;-28
2023/05/24 09:31:35;;;;;;;;;;;;;;;26.80;35.07;100579.75;5070327;28;1906;-28
2023/05/24 09:34:01;;;;;;;;;;;;;;;26.82;35.02;100585.81;5066634;28;1226;-32
2023/05/24 09:36:29;;;;;;;;;;;;;;;26.67;35.44;100583.94;5047343;28;1115;-28
2023/05/24 09:39:05;;;;;;;;;;;;;;;26.72;35.32;100586.94;5075339;28;1079;-29
2023/05/24 09:41:31;;;;;;;;;;;;;;;26.70;34.99;100593.53;5077502;28;1214;-30
2023/05/24 09:43:57;;;;;;;;;;;;;;;26.83;34.48;100592.88;5060556;28;1015;-30
2023/05/24 09:46:22;;;;;;;;;;;;;;;26.82;34.73;100589.38;5058105;28;1106;-28
2023/05/24 09:48:55;;;;;;;;;;;;;;;26.87;34.77;100596.91;5058025;28;1265;-28
2023/05/24 09:51:20;;;;;;;;;;;;;;;26.81;34.95;100606.56;5070369;28;1998;-29
2023/05/24 09:53:47;;;;;;;;;;;;;;;26.83;34.81;100598.28;5067301;28;1023;-29
2023/05/24 09:56:12;;;;;;;;;;;;;;;26.85;34.98;100602.50;5065601;28;980;-30
2023/05/24 09:58:37;;;;;;;;;;;;;;;26.87;34.67;100596.91;5045528;28;1106;-30
2023/05/24 10:01:07;;;;;;;;;;;;;;;26.81;35.11;100606.56;5047910;28;1135;-30
2023/05/24 10:03:33;;;;;;;;;;;;;;;26.88;34.65;100601.25;5070579;28;1146;-26
2023/05/24 10:05:59;;;;;;;;;;;;;;;26.85;34.94;100599.78;5077283;28;1059;-27
2023/05/24 10:08:25;;;;;;;;;;;;;;;26.88;34.55;100593.16;5076411;28;1024;-30
2023/05/24 10:10:50;;;;;;;;;;;;;;;26.84;34.92;100590.00;5076978;28;1995;-31
2023/05/24 10:13:16;;;;;;;;;;;;;;;26.82;34.73;100588.53;5070530;28;978;-32
2023/05/24 10:15:42;;;;;;;;;;;;;;;26.96;34.78;100586.88;5071330;28;1012;-29
2023/05/24 10:18:08;;;;;;;;;;;;;;;26.94;34.62;100584.34;5066988;28;1111;-30
2023/05/24 10:20:34;;;;;;;;;;;;;;;26.96;34.60;100584.97;5068750;28;843;-29
2023/05/24 10:23:00;;;;;;;;;;;;;;;26.93;34.74;100585.34;5056680;28;1329;-28
2023/05/24 10:25:27;;;;;;;;;;;;;;;26.99;34.56;100583.78;5057678;28;1036;-30
2023/05/24 10:28:06;;;;;;;;;;;;;;;27.01;34.46;100587.13;5070412;28;1277;-29
2023/05/24 10:30:51;;;;;;;;;;;;;;;26.95;34.88;100561.72;5067712;28;1269;-29
2023/05/24 10:33:17;;;;;;;;;;;;;;;27.04;34.42;100577.84;5067227;28;1210;-30
2023/05/24 10:35:42;;;;;;;;;;;;;;;26.94;34.42;100583.50;5053068;28;1416;-30
2023/05/24 10:38:07;;;;;;;;;;;;;;;27.00;34.45;100583.59;5039565;28;1253;-29
2023/05/24 10:40:33;;;;;;;;;;;;;;;27.07;34.33;100583.72;5070247;28;1202;-28
2023/05/24 10:42:59;;;;;;;;;;;;;;;27.02;34.40;100587.00;5056677;28;1379;-31
2023/05/24 10:45:28;;;;;;;;;;;;;;;27.13;34.29;100585.66;5046132;28;1345;-28
2023/05/24 10:47:55;;;;;;;;;;;;;;;27.17;34.30;100574.50;5040365;28;1198;-30
2023/05/24 10:50:20;;;;;;;;;;;;;;;27.12;34.60;100575.91;5034150;28;1203;-30
2023/05/24 10:52:49;;;;;;;;;;;;;;;27.24;34.20;100572.72;5036968;28;1988;-33
2023/05/24 10:55:14;;;;;;;;;;;;;;;27.20;33.79;100566.84;5032036;28;1218;-29
2023/05/24 10:57:41;;;;;;;;;;;;;;;27.13;33.98;100571.31;5029269;28;1269;-31
2023/05/24 11:00:26;;;;;;;;;;;;;;;27.27;33.86;100572.34;5028616;28;1285;-31
2023/05/24 11:03:02;;;;;;;;;;;;;;;27.19;33.71;100564.34;5036957;28;996;-30
2023/05/24 11:05:35;;;;;;;;;;;;;;;27.04;34.04;100583.25;5024161;28;1154;-30
2023/05/24 11:08:00;;;;;;;;;;;;;;;27.20;33.75;100590.31;5025698;28;1123;-35
2023/05/24 11:10:29;;;;;;;;;;;;;;;27.15;33.97;100580.06;5024661;28;1063;-32
2023/05/24 11:13:01;;;;;;;;;;;;;;;27.05;33.90;100593.88;5036792;28;1914;-29
2023/05/24 11:15:27;;;;;;;;;;;;;;;26.96;34.29;100587.69;5023056;28;1384;-29
2023/05/24 11:18:08;;;;;;;;;;;;;;;27.06;34.25;100586.63;5023159;28;1122;-30
2023/05/24 11:20:37;;;;;;;;;;;;;;;27.12;34.30;100594.81;5016587;28;1065;-28
2023/05/24 11:23:02;;;;;;;;;;;;;;;27.14;33.93;100584.63;5016884;28;1032;-29
2023/05/24 11:25:28;;;;;;;;;;;;;;;27.12;33.95;100581.31;5024335;28;965;-30
2023/05/24 11:27:55;;;;;;;;;;;;;;;27.16;34.27;100583.63;5029930;28;1421;-31
2023/05/24 11:30:21;;;;;;;;;;;;;;;27.17;34.33;100577.19;5020950;28;1081;-29
2023/05/24 11:32:47;;;;;;;;;;;;;;;27.23;34.22;100568.34;5026641;28;1914;-29
2023/05/24 11:35:13;;;;;;;;;;;;;;;27.32;33.73;100561.81;5030804;28;1319;-30
2023/05/24 11:37:39;;;;;;;;;;;;;;;27.27;34.08;100572.34;5030217;28;1329;-31
2023/05/24 11:40:05;;;;;;;;;;;;;;;27.30;34.00;100561.16;5023854;28;941;-28
2023/05/24 11:42:30;;;;;;;;;;;;;;;27.18;34.03;100570.75;5027660;28;1352;-31
2023/05/24 11:44:56;;;;;;;;;;;;;;;27.17;34.17;100567.25;5028698;28;1237;-31
2023/05/24 11:47:22;;;;;;;;;;;;;;;27.12;34.41;100567.81;5033636;28;963;-30
2023/05/24 11:49:50;;;;;;;;;;;;;;;27.13;33.98;100569.47;5028009;28;1186;-29
2023/05/24 11:52:16;;;;;;;;;;;;;;;27.13;34.40;100563.22;5015826;28;1972;-33
2023/05/24 11:54:41;;;;;;;;;;;;;;;27.08;34.58;100571.88;5026707;28;1120;-30
2023/05/24 11:57:11;;;;;;;;;;;;;;;26.98;34.53;100568.59;5016248;28;896;-30
2023/05/24 11:59:37;;;;;;;;;;;;;;;26.98;34.52;100568.59;5018757;28;1065;-28
2023/05/24 12:02:06;;;;;;;;;;;;;;;27.09;34.39;100572.75;5018968;28;932;-30
2023/05/24 12:04:33;;;;;;;;;;;;;;;27.04;34.52;100573.31;5029255;28;1175;-29
2023/05/24 12:06:58;;;;;;;;;;;;;;;27.06;34.87;100570.41;5019290;28;1198;-31
2023/05/24 12:09:24;;;;;;;;;;;;;;;27.07;34.34;100570.22;5023164;28;1061;-29
2023/05/24 12:11:49;;;;;;;;;;;;;;;27.12;34.63;100567.81;5027671;28;1918;-29
2023/05/24 12:14:16;;;;;;;;;;;;;;;27.32;34.05;100569.91;5016033;28;1301;-31
2023/05/24 12:16:41;;;;;;;;;;;;;;;27.14;34.43;100556.81;5032140;28;1297;-30
2023/05/24 12:19:07;;;;;;;;;;;;;;;27.16;34.52;100557.44;5030887;28;1232;-31
2023/05/24 12:21:34;;;;;;;;;;;;;;;27.26;34.55;100549.91;5029094;28;1195;-30
2023/05/24 12:24:09;;;;;;;;;;;;;;;27.31;34.05;100552.03;5032198;28;1187;-31
2023/05/24 12:26:45;;;;;;;;;;;;;;;27.19;34.51;100543.59;5022997;28;1151;-30
2023/05/24 12:29:13;;;;;;;;;;;;;;;27.24;34.51;100545.72;5022821;28;1194;-31
2023/05/24 12:31:42;;;;;;;;;;;;;;;27.14;34.54;100541.44;5030832;28;1906;-30
2023/05/24 12:34:17;;;;;;;;;;;;;;;27.29;34.31;100531.66;5023468;28;1113;-31
2023/05/24 12:36:43;;;;;;;;;;;;;;;27.34;34.37;100537.31;5028010;28;1043;-31
2023/05/24 12:39:34;;;;;;;;;;;;;;;27.20;34.56;100525.50;5022447;28;1075;-32
2023/05/24 12:42:03;;;;;;;;;;;;;;;27.28;34.55;100521.88;5017370;28;1064;-28
2023/05/24 12:44:29;;;;;;;;;;;;;;;27.26;34.62;100525.59;5036376;28;1158;-28